sensor_id;sensor_type;location;lat;lon;timestamp;pressure;altitude;pressure_sealevel;temperature;humidity
30338;BME280;17143;51.888;5.408;2023-08-12T00:12:58;101595.09;;;23.85;93.96
30338;BME280;17143;51.888;5.408;2023-08-12T00:28:00;101587.00;;;23.76;95.17
30338;BME280;17143;51.888;5.408;2023-08-12T00:43:02;101572.78;;;23.74;96.02
30338;BME280;17143;51.888;5.408;2023-08-12T00:58:05;101544.19;;;23.57;97.01
30338;BME280;17143;51.888;5.408;2023-08-12T01:13:16;101531.53;;;23.38;98.32
30338;BME280;17143;51.888;5.408;2023-08-12T01:28:18;101525.13;;;23.24;100.00
30338;BME280;17143;51.888;5.408;2023-08-12T01:43:20;101502.91;;;23.19;100.00
30338;BME280;17143;51.888;5.408;2023-08-12T01:58:23;101487.69;;;23.09;100.00
30338;BME280;17143;51.888;5.408;2023-08-12T02:13:25;101481.50;;;23.09;100.00
30338;BME280;17143;51.888;5.408;2023-08-12T02:28:27;101490.28;;;23.06;100.00
30338;BME280;17143;51.888;5.408;2023-08-12T02:43:29;101454.72;;;22.95;100.00
30338;BME280;17143;51.888;5.408;2023-08-12T02:58:31;101443.13;;;22.91;100.00
30338;BME280;17143;51.888;5.408;2023-08-12T03:13:33;101429.81;;;22.87;100.00
30338;BME280;17143;51.888;5.408;2023-08-12T03:28:35;101398.72;;;22.83;100.00
30338;BME280;17143;51.888;5.408;2023-08-12T03:43:37;101395.97;;;22.74;100.00
30338;BME280;17143;51.888;5.408;2023-08-12T03:58:40;101366.59;;;22.65;100.00
30338;BME280;17143;51.888;5.408;2023-08-12T04:13:43;101352.47;;;22.66;100.00
30338;BME280;17143;51.888;5.408;2023-08-12T04:28:48;101363.88;;;22.62;100.00
30338;BME280;17143;51.888;5.408;2023-08-12T04:43:50;101315.06;;;22.52;100.00
30338;BME280;17143;51.888;5.408;2023-08-12T04:58:52;101317.56;;;22.41;100.00
30338;BME280;17143;51.888;5.408;2023-08-12T05:13:54;101315.56;;;22.25;100.00
30338;BME280;17143;51.888;5.408;2023-08-12T05:28:56;101318.97;;;22.15;100.00
30338;BME280;17143;51.888;5.408;2023-08-12T05:43:58;101302.84;;;22.03;100.00
30338;BME280;17143;51.888;5.408;2023-08-12T05:59:00;101301.03;;;21.99;100.00
30338;BME280;17143;51.888;5.408;2023-08-12T06:14:02;101297.38;;;21.91;100.00
30338;BME280;17143;51.888;5.408;2023-08-12T06:29:04;101285.72;;;21.83;100.00
30338;BME280;17143;51.888;5.408;2023-08-12T06:44:07;101280.38;;;21.81;100.00
30338;BME280;17143;51.888;5.408;2023-08-12T06:59:09;101260.06;;;21.83;100.00
30338;BME280;17143;51.888;5.408;2023-08-12T07:14:11;101255.63;;;21.81;100.00
30338;BME280;17143;51.888;5.408;2023-08-12T07:29:13;101245.75;;;21.74;100.00
30338;BME280;17143;51.888;5.408;2023-08-12T07:44:15;101244.78;;;21.67;100.00
30338;BME280;17143;51.888;5.408;2023-08-12T07:59:17;101247.50;;;21.72;100.00
30338;BME280;17143;51.888;5.408;2023-08-12T08:14:19;101244.16;;;21.85;100.00
30338;BME280;17143;51.888;5.408;2023-08-12T08:29:21;101257.66;;;21.97;100.00
30338;BME280;17143;51.888;5.408;2023-08-12T08:44:29;101267.44;;;22.01;100.00
30338;BME280;17143;51.888;5.408;2023-08-12T08:59:31;101278.19;;;22.10;100.00
30338;BME280;17143;51.888;5.408;2023-08-12T09:14:33;101316.69;;;21.85;100.00
30338;BME280;17143;51.888;5.408;2023-08-12T09:29:36;101322.81;;;23.95;100.00
30338;BME280;17143;51.888;5.408;2023-08-12T09:44:38;101342.84;;;22.74;100.00
30338;BME280;17143;51.888;5.408;2023-08-12T09:59:41;101346.59;;;25.17;93.04
30338;BME280;17143;51.888;5.408;2023-08-12T10:14:43;101350.13;;;25.10;92.21
30338;BME280;17143;51.888;5.408;2023-08-12T10:29:45;101355.56;;;25.46;85.85
30338;BME280;17143;51.888;5.408;2023-08-12T10:44:51;101351.16;;;26.02;82.52
30338;BME280;17143;51.888;5.408;2023-08-12T10:59:54;101350.00;;;27.03;76.81
30338;BME280;17143;51.888;5.408;2023-08-12T11:14:57;101347.44;;;26.87;73.45
30338;BME280;17143;51.888;5.408;2023-08-12T11:29:59;101343.13;;;26.30;74.36
30338;BME280;17143;51.888;5.408;2023-08-12T11:45:02;101339.44;;;26.78;71.12
30338;BME280;17143;51.888;5.408;2023-08-12T12:00:06;101336.56;;;27.20;69.23
30338;BME280;17143;51.888;5.408;2023-08-12T12:15:14;101339.22;;;27.22;65.94
30338;BME280;17143;51.888;5.408;2023-08-12T12:30:16;101354.97;;;27.70;64.77
30338;BME280;17143;51.888;5.408;2023-08-12T12:45:20;101357.09;;;28.35;64.14
30338;BME280;17143;51.888;5.408;2023-08-12T13:00:22;101363.59;;;28.11;61.22
30338;BME280;17143;51.888;5.408;2023-08-12T13:15:24;101374.38;;;28.01;60.29
30338;BME280;17143;51.888;5.408;2023-08-12T13:30:26;101373.81;;;27.61;62.66
30338;BME280;17143;51.888;5.408;2023-08-12T13:45:28;101398.16;;;27.03;61.08
30338;BME280;17143;51.888;5.408;2023-08-12T14:00:30;101392.47;;;27.70;58.61
30338;BME280;17143;51.888;5.408;2023-08-12T14:15:32;101393.25;;;27.84;54.53
30338;BME280;17143;51.888;5.408;2023-08-12T14:30:34;101402.31;;;27.65;56.54
30338;BME280;17143;51.888;5.408;2023-08-12T14:45:36;101404.50;;;26.87;56.75
30338;BME280;17143;51.888;5.408;2023-08-12T15:00:38;101396.44;;;26.93;54.86
30338;BME280;17143;51.888;5.408;2023-08-12T15:15:40;101393.88;;;26.27;57.03
30338;BME280;17143;51.888;5.408;2023-08-12T15:30:42;101388.56;;;26.02;59.86
30338;BME280;17143;51.888;5.408;2023-08-12T15:45:44;101394.75;;;25.59;66.44
30338;BME280;17143;51.888;5.408;2023-08-12T16:00:47;101400.03;;;25.50;66.66
30338;BME280;17143;51.888;5.408;2023-08-12T16:15:49;101395.63;;;25.76;64.14
30338;BME280;17143;51.888;5.408;2023-08-12T16:30:51;101397.41;;;25.79;59.96
30338;BME280;17143;51.888;5.408;2023-08-12T16:45:53;101400.97;;;25.67;57.54
30338;BME280;17143;51.888;5.408;2023-08-12T17:00:55;101406.22;;;25.31;57.44
30338;BME280;17143;51.888;5.408;2023-08-12T17:15:57;101391.06;;;25.24;57.29
30338;BME280;17143;51.888;5.408;2023-08-12T17:30:59;101394.50;;;24.94;58.83
30338;BME280;17143;51.888;5.408;2023-08-12T17:46:01;101393.50;;;24.77;60.23
30338;BME280;17143;51.888;5.408;2023-08-12T18:01:03;101397.84;;;24.58;62.33
30338;BME280;17143;51.888;5.408;2023-08-12T18:16:05;101411.06;;;24.43;64.96
30338;BME280;17143;51.888;5.408;2023-08-12T18:31:07;101422.41;;;24.18;67.15
30338;BME280;17143;51.888;5.408;2023-08-12T18:46:09;101433.75;;;23.96;69.45
30338;BME280;17143;51.888;5.408;2023-08-12T19:01:11;101455.72;;;23.77;71.45
30338;BME280;17143;51.888;5.408;2023-08-12T19:16:13;101482.03;;;23.48;72.70
30338;BME280;17143;51.888;5.408;2023-08-12T19:31:15;101488.53;;;23.05;74.61
30338;BME280;17143;51.888;5.408;2023-08-12T19:46:17;101498.78;;;22.81;76.40
30338;BME280;17143;51.888;5.408;2023-08-12T20:01:28;101504.84;;;22.72;77.92
30338;BME280;17143;51.888;5.408;2023-08-12T20:16:30;101500.13;;;22.55;78.62
30338;BME280;17143;51.888;5.408;2023-08-12T20:31:32;101486.44;;;22.30;79.69
30338;BME280;17143;51.888;5.408;2023-08-12T20:46:34;101487.75;;;22.04;81.09
30338;BME280;17143;51.888;5.408;2023-08-12T21:01:36;101494.50;;;21.87;82.33
30338;BME280;17143;51.888;5.408;2023-08-12T21:16:38;101480.94;;;21.72;83.56
30338;BME280;17143;51.888;5.408;2023-08-12T21:31:40;101489.38;;;21.53;84.33
30338;BME280;17143;51.888;5.408;2023-08-12T21:46:42;101498.03;;;21.43;85.45
30338;BME280;17143;51.888;5.408;2023-08-12T22:01:44;101499.88;;;21.47;87.38
30338;BME280;17143;51.888;5.408;2023-08-12T22:16:46;101499.75;;;21.41;87.47
30338;BME280;17143;51.888;5.408;2023-08-12T22:31:48;101509.66;;;21.07;85.46
30338;BME280;17143;51.888;5.408;2023-08-12T22:46:50;101505.34;;;20.75;84.89
30338;BME280;17143;51.888;5.408;2023-08-12T23:01:52;101503.94;;;20.55;85.25
30338;BME280;17143;51.888;5.408;2023-08-12T23:16:55;101517.47;;;20.31;84.60
30338;BME280;17143;51.888;5.408;2023-08-12T23:31:57;101511.31;;;19.99;85.09
30338;BME280;17143;51.888;5.408;2023-08-12T23:46:59;101516.22;;;19.86;85.63
